sensor_id;sensor_type;location;lat;lon;timestamp;pressure;altitude;pressure_sealevel;temperature;humidity
14790;BME280;7486;51.010;10.366;2023-07-20T00:00:34;98012.34;;;14.76;74.33
14790;BME280;7486;51.010;10.366;2023-07-20T00:03:20;98004.13;;;14.78;74.11
14790;BME280;7486;51.010;10.366;2023-07-20T00:06:05;98007.22;;;14.86;73.86
14790;BME280;7486;51.010;10.366;2023-07-20T00:08:51;98001.09;;;14.86;73.10
14790;BME280;7486;51.010;10.366;2023-07-20T00:11:37;97999.63;;;14.95;72.81
14790;BME280;7486;51.010;10.366;2023-07-20T00:14:22;98003.94;;;14.96;72.87
14790;BME280;7486;51.010;10.366;2023-07-20T00:17:08;97997.78;;;14.95;72.54
14790;BME280;7486;51.010;10.366;2023-07-20T00:19:53;97994.31;;;14.95;72.88
14790;BME280;7486;51.010;10.366;2023-07-20T00:22:38;97989.94;;;14.89;72.82
14790;BME280;7486;51.010;10.366;2023-07-20T00:25:24;97992.69;;;14.94;72.16
14790;BME280;7486;51.010;10.366;2023-07-20T00:28:10;97993.91;;;14.86;72.86
14790;BME280;7486;51.010;10.366;2023-07-20T00:30:55;97987.09;;;14.79;73.29
14790;BME280;7486;51.010;10.366;2023-07-20T00:33:40;97990.44;;;14.74;73.46
14790;BME280;7486;51.010;10.366;2023-07-20T00:36:26;97994.06;;;14.68;73.70
14790;BME280;7486;51.010;10.366;2023-07-20T00:39:11;97994.69;;;14.58;73.46
14790;BME280;7486;51.010;10.366;2023-07-20T00:41:56;97986.16;;;14.45;73.38
14790;BME280;7486;51.010;10.366;2023-07-20T00:44:42;97996.44;;;14.53;73.16
14790;BME280;7486;51.010;10.366;2023-07-20T00:47:27;97991.16;;;14.41;73.15
14790;BME280;7486;51.010;10.366;2023-07-20T00:50:13;97992.63;;;14.37;73.20
14790;BME280;7486;51.010;10.366;2023-07-20T00:52:58;97971.69;;;14.29;72.26
14790;BME280;7486;51.010;10.366;2023-07-20T00:55:43;97991.00;;;14.36;72.23
14790;BME280;7486;51.010;10.366;2023-07-20T00:58:29;97991.38;;;14.28;72.92
14790;BME280;7486;51.010;10.366;2023-07-20T01:01:14;97993.94;;;14.23;72.97
14790;BME280;7486;51.010;10.366;2023-07-20T01:04:00;97998.56;;;14.28;72.85
14790;BME280;7486;51.010;10.366;2023-07-20T01:06:55;97981.31;;;14.18;72.82
14790;BME280;7486;51.010;10.366;2023-07-20T01:09:48;98006.78;;;14.26;72.57
14790;BME280;7486;51.010;10.366;2023-07-20T01:12:57;97996.81;;;14.33;71.88
14790;BME280;7486;51.010;10.366;2023-07-20T01:15:49;97994.72;;;14.35;72.09
14790;BME280;7486;51.010;10.366;2023-07-20T01:18:35;97996.47;;;14.30;72.27
14790;BME280;7486;51.010;10.366;2023-07-20T01:21:31;97991.75;;;14.20;73.14
14790;BME280;7486;51.010;10.366;2023-07-20T01:31:17;97993.75;;;13.90;74.08
14790;BME280;7486;51.010;10.366;2023-07-20T01:33:42;97996.06;;;13.98;74.01
14790;BME280;7486;51.010;10.366;2023-07-20T01:36:32;97996.78;;;13.93;74.40
14790;BME280;7486;51.010;10.366;2023-07-20T01:39:19;97995.00;;;13.99;74.01
14790;BME280;7486;51.010;10.366;2023-07-20T01:42:06;98002.66;;;14.07;73.79
14790;BME280;7486;51.010;10.366;2023-07-20T01:44:52;97997.91;;;14.09;73.78
14790;BME280;7486;51.010;10.366;2023-07-20T01:47:37;97999.53;;;14.10;73.76
14790;BME280;7486;51.010;10.366;2023-07-20T01:50:22;97993.84;;;14.06;73.50
14790;BME280;7486;51.010;10.366;2023-07-20T01:53:08;97986.06;;;14.16;73.36
14790;BME280;7486;51.010;10.366;2023-07-20T01:55:53;97981.31;;;14.18;73.46
14790;BME280;7486;51.010;10.366;2023-07-20T01:58:39;97987.72;;;14.17;73.32
14790;BME280;7486;51.010;10.366;2023-07-20T02:01:24;97981.56;;;14.17;73.05
14790;BME280;7486;51.010;10.366;2023-07-20T02:04:10;97989.09;;;14.20;72.93
14790;BME280;7486;51.010;10.366;2023-07-20T02:06:55;97997.53;;;14.17;73.08
14790;BME280;7486;51.010;10.366;2023-07-20T02:09:41;98001.94;;;14.11;73.46
14790;BME280;7486;51.010;10.366;2023-07-20T02:12:27;98008.00;;;14.07;73.54
14790;BME280;7486;51.010;10.366;2023-07-20T02:15:12;98007.75;;;13.97;74.22
14790;BME280;7486;51.010;10.366;2023-07-20T02:17:57;98002.22;;;13.87;74.71
14790;BME280;7486;51.010;10.366;2023-07-20T02:20:43;98004.06;;;13.86;74.81
14790;BME280;7486;51.010;10.366;2023-07-20T02:23:28;98007.66;;;13.80;75.14
14790;BME280;7486;51.010;10.366;2023-07-20T02:26:14;97981.47;;;13.77;74.76
14790;BME280;7486;51.010;10.366;2023-07-20T02:28:59;97990.50;;;13.88;74.51
14790;BME280;7486;51.010;10.366;2023-07-20T02:31:44;97994.91;;;13.94;74.47
14790;BME280;7486;51.010;10.366;2023-07-20T02:34:30;97995.59;;;13.89;74.85
14790;BME280;7486;51.010;10.366;2023-07-20T02:37:16;97996.44;;;13.90;75.07
14790;BME280;7486;51.010;10.366;2023-07-20T02:40:01;97999.31;;;13.88;74.56
14790;BME280;7486;51.010;10.366;2023-07-20T02:42:47;98004.50;;;13.95;74.46
14790;BME280;7486;51.010;10.366;2023-07-20T02:45:32;97993.75;;;13.90;74.69
14790;BME280;7486;51.010;10.366;2023-07-20T02:48:18;98003.13;;;13.81;75.44
14790;BME280;7486;51.010;10.366;2023-07-20T02:51:03;97997.31;;;13.84;75.18
14790;BME280;7486;51.010;10.366;2023-07-20T02:53:49;98002.78;;;13.89;74.84
14790;BME280;7486;51.010;10.366;2023-07-20T02:56:34;97996.75;;;13.82;75.23
14790;BME280;7486;51.010;10.366;2023-07-20T02:59:20;98009.50;;;13.80;75.04
14790;BME280;7486;51.010;10.366;2023-07-20T03:02:05;98006.47;;;13.88;74.57
14790;BME280;7486;51.010;10.366;2023-07-20T03:04:50;98010.19;;;13.87;74.68
14790;BME280;7486;51.010;10.366;2023-07-20T03:07:36;98002.66;;;13.84;74.76
14790;BME280;7486;51.010;10.366;2023-07-20T03:10:21;98001.16;;;13.88;74.40
14790;BME280;7486;51.010;10.366;2023-07-20T03:13:07;97993.28;;;13.81;74.61
14790;BME280;7486;51.010;10.366;2023-07-20T03:15:53;98000.72;;;13.79;74.92
14790;BME280;7486;51.010;10.366;2023-07-20T03:18:40;97999.41;;;13.82;74.29
14790;BME280;7486;51.010;10.366;2023-07-20T03:21:26;98009.25;;;13.81;74.43
14790;BME280;7486;51.010;10.366;2023-07-20T03:24:11;98004.88;;;13.75;74.69
14790;BME280;7486;51.010;10.366;2023-07-20T03:26:57;97996.25;;;13.50;75.27
14790;BME280;7486;51.010;10.366;2023-07-20T03:29:43;98018.50;;;13.55;74.83
14790;BME280;7486;51.010;10.366;2023-07-20T03:32:29;98021.75;;;13.57;75.06
14790;BME280;7486;51.010;10.366;2023-07-20T03:35:15;98015.72;;;13.50;74.91
14790;BME280;7486;51.010;10.366;2023-07-20T03:38:00;97950.66;;;13.11;75.14
14790;BME280;7486;51.010;10.366;2023-07-20T03:40:53;98012.03;;;13.51;74.78
14790;BME280;7486;51.010;10.366;2023-07-20T03:43:38;98022.75;;;13.45;74.90
14790;BME280;7486;51.010;10.366;2023-07-20T03:46:24;98009.78;;;13.48;74.41
14790;BME280;7486;51.010;10.366;2023-07-20T03:49:09;98006.31;;;13.48;74.49
14790;BME280;7486;51.010;10.366;2023-07-20T03:51:55;98013.50;;;13.47;74.23
14790;BME280;7486;51.010;10.366;2023-07-20T03:54:40;98024.13;;;13.47;74.66
14790;BME280;7486;51.010;10.366;2023-07-20T03:57:26;98026.16;;;13.52;74.27
14790;BME280;7486;51.010;10.366;2023-07-20T04:00:11;98021.63;;;13.52;74.39
14790;BME280;7486;51.010;10.366;2023-07-20T04:02:57;98023.59;;;13.57;74.25
14790;BME280;7486;51.010;10.366;2023-07-20T04:05:43;98017.47;;;13.68;74.01
14790;BME280;7486;51.010;10.366;2023-07-20T04:08:28;98012.16;;;13.80;73.50
14790;BME280;7486;51.010;10.366;2023-07-20T04:11:13;98016.44;;;13.81;73.61
14790;BME280;7486;51.010;10.366;2023-07-20T04:13:59;98022.13;;;13.72;73.91
14790;BME280;7486;51.010;10.366;2023-07-20T04:16:46;98028.13;;;13.91;73.05
14790;BME280;7486;51.010;10.366;2023-07-20T04:19:32;98029.41;;;13.89;73.01
14790;BME280;7486;51.010;10.366;2023-07-20T04:22:17;98027.09;;;13.92;72.95
14790;BME280;7486;51.010;10.366;2023-07-20T04:25:03;98030.56;;;13.81;73.58
14790;BME280;7486;51.010;10.366;2023-07-20T04:27:49;98014.56;;;13.58;74.25
14790;BME280;7486;51.010;10.366;2023-07-20T04:30:36;98040.16;;;13.70;74.14
14790;BME280;7486;51.010;10.366;2023-07-20T04:33:22;98042.25;;;13.68;74.14
14790;BME280;7486;51.010;10.366;2023-07-20T04:36:08;98037.84;;;13.62;74.44
14790;BME280;7486;51.010;10.366;2023-07-20T04:38:54;98041.53;;;13.61;74.08
14790;BME280;7486;51.010;10.366;2023-07-20T04:41:40;98043.06;;;13.69;73.79
14790;BME280;7486;51.010;10.366;2023-07-20T04:44:26;98037.38;;;13.65;74.03
14790;BME280;7486;51.010;10.366;2023-07-20T04:47:11;98043.16;;;13.62;74.29
14790;BME280;7486;51.010;10.366;2023-07-20T04:49:56;98047.31;;;13.58;74.56
14790;BME280;7486;51.010;10.366;2023-07-20T04:52:42;98048.50;;;13.62;74.52
14790;BME280;7486;51.010;10.366;2023-07-20T04:55:33;98050.78;;;13.70;74.11
14790;BME280;7486;51.010;10.366;2023-07-20T04:58:22;98051.16;;;13.86;74.01
14790;BME280;7486;51.010;10.366;2023-07-20T05:01:08;98046.75;;;13.91;72.85
14790;BME280;7486;51.010;10.366;2023-07-20T05:03:55;98050.56;;;13.84;73.53
14790;BME280;7486;51.010;10.366;2023-07-20T05:06:40;98053.59;;;13.76;73.76
14790;BME280;7486;51.010;10.366;2023-07-20T05:09:26;98054.06;;;13.72;73.80
14790;BME280;7486;51.010;10.366;2023-07-20T05:12:11;98050.13;;;13.87;73.56
14790;BME280;7486;51.010;10.366;2023-07-20T05:14:56;98044.91;;;13.92;73.39
14790;BME280;7486;51.010;10.366;2023-07-20T05:17:42;98059.03;;;13.92;73.33
14790;BME280;7486;51.010;10.366;2023-07-20T05:20:28;98051.50;;;14.01;72.64
14790;BME280;7486;51.010;10.366;2023-07-20T05:23:13;98059.97;;;13.98;72.57
14790;BME280;7486;51.010;10.366;2023-07-20T05:25:59;98049.44;;;14.03;72.75
14790;BME280;7486;51.010;10.366;2023-07-20T05:28:45;98025.72;;;13.90;73.73
14790;BME280;7486;51.010;10.366;2023-07-20T05:31:30;98047.56;;;14.15;72.75
14790;BME280;7486;51.010;10.366;2023-07-20T05:34:16;98037.47;;;14.29;71.89
14790;BME280;7486;51.010;10.366;2023-07-20T05:37:01;98045.34;;;14.35;71.52
14790;BME280;7486;51.010;10.366;2023-07-20T05:39:53;98052.53;;;14.35;72.24
14790;BME280;7486;51.010;10.366;2023-07-20T05:42:39;98047.66;;;14.32;72.85
14790;BME280;7486;51.010;10.366;2023-07-20T05:45:24;98043.81;;;14.39;71.78
14790;BME280;7486;51.010;10.366;2023-07-20T05:48:09;98048.91;;;14.52;72.33
14790;BME280;7486;51.010;10.366;2023-07-20T05:50:55;98048.00;;;14.58;71.56
14790;BME280;7486;51.010;10.366;2023-07-20T05:53:41;98011.28;;;14.49;74.57
14790;BME280;7486;51.010;10.366;2023-07-20T05:56:26;98057.25;;;14.67;74.18
14790;BME280;7486;51.010;10.366;2023-07-20T05:59:13;98054.00;;;14.65;74.34
14790;BME280;7486;51.010;10.366;2023-07-20T06:01:58;98054.63;;;14.84;74.19
14790;BME280;7486;51.010;10.366;2023-07-20T06:04:43;98057.00;;;14.97;75.32
14790;BME280;7486;51.010;10.366;2023-07-20T06:07:29;98060.88;;;15.18;74.08
14790;BME280;7486;51.010;10.366;2023-07-20T06:10:14;98051.56;;;15.32;75.86
14790;BME280;7486;51.010;10.366;2023-07-20T06:12:59;98057.88;;;15.59;71.94
14790;BME280;7486;51.010;10.366;2023-07-20T06:15:45;98062.34;;;15.54;70.38
14790;BME280;7486;51.010;10.366;2023-07-20T06:18:30;98056.09;;;15.48;71.65
14790;BME280;7486;51.010;10.366;2023-07-20T06:21:15;98053.06;;;15.28;72.09
14790;BME280;7486;51.010;10.366;2023-07-20T06:24:01;98053.59;;;15.42;72.56
14790;BME280;7486;51.010;10.366;2023-07-20T06:26:46;98055.75;;;15.45;72.39
14790;BME280;7486;51.010;10.366;2023-07-20T06:29:31;98056.53;;;15.73;72.52
14790;BME280;7486;51.010;10.366;2023-07-20T06:32:17;98049.47;;;16.01;70.09
14790;BME280;7486;51.010;10.366;2023-07-20T06:35:02;98044.38;;;15.99;71.14
14790;BME280;7486;51.010;10.366;2023-07-20T06:37:48;98051.16;;;16.07;70.52
14790;BME280;7486;51.010;10.366;2023-07-20T06:40:34;98043.69;;;16.26;70.76
14790;BME280;7486;51.010;10.366;2023-07-20T06:43:19;98028.97;;;16.23;69.38
14790;BME280;7486;51.010;10.366;2023-07-20T06:46:08;98046.72;;;15.96;71.07
14790;BME280;7486;51.010;10.366;2023-07-20T06:48:53;98047.59;;;16.18;70.96
14790;BME280;7486;51.010;10.366;2023-07-20T06:51:42;98037.38;;;16.32;69.31
14790;BME280;7486;51.010;10.366;2023-07-20T06:54:27;98042.97;;;16.73;69.61
14790;BME280;7486;51.010;10.366;2023-07-20T06:57:13;98022.19;;;16.81;67.50
14790;BME280;7486;51.010;10.366;2023-07-20T07:00:02;98043.78;;;16.96;67.07
14790;BME280;7486;51.010;10.366;2023-07-20T07:02:50;98039.81;;;17.25;66.05
14790;BME280;7486;51.010;10.366;2023-07-20T07:05:38;98033.81;;;17.40;62.78
14790;BME280;7486;51.010;10.366;2023-07-20T07:08:28;98022.84;;;17.14;63.27
14790;BME280;7486;51.010;10.366;2023-07-20T07:11:14;98046.63;;;17.38;64.03
14790;BME280;7486;51.010;10.366;2023-07-20T07:13:59;98042.28;;;17.32;64.27
14790;BME280;7486;51.010;10.366;2023-07-20T07:16:44;98044.72;;;17.65;65.01
14790;BME280;7486;51.010;10.366;2023-07-20T07:19:30;98041.13;;;17.54;62.93
14790;BME280;7486;51.010;10.366;2023-07-20T07:22:15;98033.38;;;17.26;63.68
14790;BME280;7486;51.010;10.366;2023-07-20T07:25:01;98048.28;;;17.44;63.33
14790;BME280;7486;51.010;10.366;2023-07-20T07:27:46;98037.53;;;17.12;62.59
14790;BME280;7486;51.010;10.366;2023-07-20T07:30:31;98037.34;;;16.75;63.64
14790;BME280;7486;51.010;10.366;2023-07-20T07:33:19;98035.16;;;16.67;63.79
14790;BME280;7486;51.010;10.366;2023-07-20T07:36:04;98046.44;;;16.96;63.66
14790;BME280;7486;51.010;10.366;2023-07-20T07:38:50;98040.16;;;16.85;64.61
14790;BME280;7486;51.010;10.366;2023-07-20T07:41:56;98034.50;;;17.30;64.08
14790;BME280;7486;51.010;10.366;2023-07-20T07:44:41;98037.25;;;17.40;60.76
14790;BME280;7486;51.010;10.366;2023-07-20T07:47:27;97987.34;;;17.24;61.43
14790;BME280;7486;51.010;10.366;2023-07-20T07:50:12;98035.56;;;17.88;58.44
14790;BME280;7486;51.010;10.366;2023-07-20T07:52:58;98035.50;;;17.83;58.66
14790;BME280;7486;51.010;10.366;2023-07-20T07:55:43;98036.47;;;17.66;57.72
14790;BME280;7486;51.010;10.366;2023-07-20T07:58:29;98037.06;;;17.73;58.25
14790;BME280;7486;51.010;10.366;2023-07-20T08:01:14;98035.25;;;17.57;58.77
14790;BME280;7486;51.010;10.366;2023-07-20T08:04:01;98043.84;;;17.28;58.64
14790;BME280;7486;51.010;10.366;2023-07-20T08:06:46;98044.88;;;17.21;59.17
14790;BME280;7486;51.010;10.366;2023-07-20T08:09:32;98043.03;;;17.27;60.24
14790;BME280;7486;51.010;10.366;2023-07-20T08:12:18;98045.88;;;17.42;58.96
14790;BME280;7486;51.010;10.366;2023-07-20T08:15:04;98036.63;;;17.28;59.75
14790;BME280;7486;51.010;10.366;2023-07-20T08:17:49;98043.66;;;17.66;58.87
14790;BME280;7486;51.010;10.366;2023-07-20T08:20:35;98046.13;;;18.04;56.79
14790;BME280;7486;51.010;10.366;2023-07-20T08:23:20;98040.72;;;18.41;56.05
14790;BME280;7486;51.010;10.366;2023-07-20T08:26:06;98043.72;;;18.55;55.16
14790;BME280;7486;51.010;10.366;2023-07-20T08:28:53;98041.38;;;18.21;55.40
14790;BME280;7486;51.010;10.366;2023-07-20T08:31:40;98045.69;;;17.81;55.82
14790;BME280;7486;51.010;10.366;2023-07-20T08:34:25;98046.09;;;17.67;56.10
14790;BME280;7486;51.010;10.366;2023-07-20T08:37:16;98057.63;;;17.41;56.25
14790;BME280;7486;51.010;10.366;2023-07-20T08:40:01;98007.13;;;17.23;56.96
14790;BME280;7486;51.010;10.366;2023-07-20T08:42:46;98042.00;;;17.33;57.52
14790;BME280;7486;51.010;10.366;2023-07-20T08:45:36;98055.31;;;17.23;56.36
14790;BME280;7486;51.010;10.366;2023-07-20T08:48:27;98033.38;;;17.26;54.83
14790;BME280;7486;51.010;10.366;2023-07-20T08:51:12;98060.31;;;17.41;52.97
14790;BME280;7486;51.010;10.366;2023-07-20T08:53:59;98052.69;;;17.28;54.89
14790;BME280;7486;51.010;10.366;2023-07-20T08:56:45;98057.97;;;17.23;55.18
14790;BME280;7486;51.010;10.366;2023-07-20T08:59:32;98066.22;;;17.70;53.84
14790;BME280;7486;51.010;10.366;2023-07-20T09:02:18;98084.28;;;17.04;55.82
14790;BME280;7486;51.010;10.366;2023-07-20T09:05:04;98079.50;;;16.08;62.45
14790;BME280;7486;51.010;10.366;2023-07-20T09:07:51;98077.84;;;15.40;65.22
14790;BME280;7486;51.010;10.366;2023-07-20T09:10:36;98091.75;;;15.42;65.72
14790;BME280;7486;51.010;10.366;2023-07-20T09:13:22;98084.94;;;15.35;66.66
14790;BME280;7486;51.010;10.366;2023-07-20T09:16:07;98070.91;;;15.39;66.85
14790;BME280;7486;51.010;10.366;2023-07-20T09:18:52;98081.53;;;15.67;67.40
14790;BME280;7486;51.010;10.366;2023-07-20T09:21:38;98083.69;;;15.54;68.94
14790;BME280;7486;51.010;10.366;2023-07-20T09:24:23;98088.78;;;15.55;68.27
14790;BME280;7486;51.010;10.366;2023-07-20T09:27:09;98087.31;;;15.19;68.81
14790;BME280;7486;51.010;10.366;2023-07-20T09:29:56;98091.81;;;15.02;68.18
14790;BME280;7486;51.010;10.366;2023-07-20T09:32:43;98093.63;;;14.73;69.70
14790;BME280;7486;51.010;10.366;2023-07-20T09:35:31;98060.38;;;15.21;65.14
14790;BME280;7486;51.010;10.366;2023-07-20T09:38:27;98088.31;;;15.02;66.33
14790;BME280;7486;51.010;10.366;2023-07-20T09:41:14;98090.44;;;15.00;68.83
14790;BME280;7486;51.010;10.366;2023-07-20T09:44:03;98083.59;;;15.49;64.77
14790;BME280;7486;51.010;10.366;2023-07-20T09:47:09;98102.41;;;16.04;63.83
14790;BME280;7486;51.010;10.366;2023-07-20T09:49:59;98102.19;;;15.89;65.08
14790;BME280;7486;51.010;10.366;2023-07-20T09:52:47;98107.25;;;16.07;64.12
14790;BME280;7486;51.010;10.366;2023-07-20T09:55:36;98112.09;;;15.60;62.70
14790;BME280;7486;51.010;10.366;2023-07-20T09:58:22;98106.78;;;15.32;66.05
14790;BME280;7486;51.010;10.366;2023-07-20T10:01:08;98119.78;;;15.28;69.30
14790;BME280;7486;51.010;10.366;2023-07-20T10:03:58;98118.97;;;14.88;72.04
14790;BME280;7486;51.010;10.366;2023-07-20T10:06:46;98122.09;;;14.96;71.94
14790;BME280;7486;51.010;10.366;2023-07-20T10:09:32;98127.28;;;15.03;74.95
14790;BME280;7486;51.010;10.366;2023-07-20T10:12:22;98135.97;;;15.10;74.34
14790;BME280;7486;51.010;10.366;2023-07-20T10:15:20;98143.34;;;15.19;74.15
14790;BME280;7486;51.010;10.366;2023-07-20T10:18:30;98137.38;;;15.01;74.11
14790;BME280;7486;51.010;10.366;2023-07-20T10:21:17;98151.84;;;15.05;74.87
14790;BME280;7486;51.010;10.366;2023-07-20T10:24:06;98154.00;;;15.31;73.58
14790;BME280;7486;51.010;10.366;2023-07-20T10:26:52;98153.81;;;15.49;74.48
14790;BME280;7486;51.010;10.366;2023-07-20T10:29:37;98142.13;;;15.39;74.19
14790;BME280;7486;51.010;10.366;2023-07-20T10:32:24;98094.50;;;15.19;73.94
14790;BME280;7486;51.010;10.366;2023-07-20T10:35:17;98140.97;;;15.63;74.44
14790;BME280;7486;51.010;10.366;2023-07-20T10:38:03;98062.16;;;15.27;72.05
14790;BME280;7486;51.010;10.366;2023-07-20T10:40:55;98151.16;;;15.49;73.16
14790;BME280;7486;51.010;10.366;2023-07-20T10:43:45;98153.03;;;14.97;74.34
14790;BME280;7486;51.010;10.366;2023-07-20T10:49:26;98159.56;;;14.32;78.12
14790;BME280;7486;51.010;10.366;2023-07-20T10:52:11;98163.91;;;13.91;79.82
14790;BME280;7486;51.010;10.366;2023-07-20T10:55:10;98165.22;;;14.00;79.41
14790;BME280;7486;51.010;10.366;2023-07-20T11:01:00;98170.81;;;14.34;78.06
14790;BME280;7486;51.010;10.366;2023-07-20T11:03:50;98171.16;;;14.37;77.90
14790;BME280;7486;51.010;10.366;2023-07-20T11:06:42;98120.97;;;13.99;79.08
14790;BME280;7486;51.010;10.366;2023-07-20T11:09:33;98165.50;;;14.45;77.49
14790;BME280;7486;51.010;10.366;2023-07-20T11:12:19;98097.25;;;14.21;79.30
14790;BME280;7486;51.010;10.366;2023-07-20T11:15:05;98140.94;;;14.55;76.01
14790;BME280;7486;51.010;10.366;2023-07-20T11:17:50;98165.84;;;14.60;75.03
14790;BME280;7486;51.010;10.366;2023-07-20T11:20:36;98157.59;;;14.73;75.64
14790;BME280;7486;51.010;10.366;2023-07-20T11:23:22;98101.72;;;15.07;75.63
14790;BME280;7486;51.010;10.366;2023-07-20T11:26:08;98171.94;;;15.47;70.17
14790;BME280;7486;51.010;10.366;2023-07-20T11:28:53;98166.34;;;15.49;70.53
14790;BME280;7486;51.010;10.366;2023-07-20T11:31:43;98164.59;;;15.54;68.79
14790;BME280;7486;51.010;10.366;2023-07-20T11:34:30;98162.06;;;15.48;68.50
14790;BME280;7486;51.010;10.366;2023-07-20T11:37:16;98163.78;;;15.14;68.82
14790;BME280;7486;51.010;10.366;2023-07-20T11:40:02;98155.34;;;15.45;67.70
14790;BME280;7486;51.010;10.366;2023-07-20T11:42:47;98158.66;;;15.81;67.77
14790;BME280;7486;51.010;10.366;2023-07-20T11:45:35;98159.53;;;16.03;67.48
14790;BME280;7486;51.010;10.366;2023-07-20T11:48:21;98158.06;;;16.40;63.77
14790;BME280;7486;51.010;10.366;2023-07-20T11:51:13;98156.75;;;16.09;64.81
14790;BME280;7486;51.010;10.366;2023-07-20T11:54:01;98155.94;;;16.09;65.78
14790;BME280;7486;51.010;10.366;2023-07-20T11:56:47;98147.50;;;16.17;63.84
14790;BME280;7486;51.010;10.366;2023-07-20T11:59:33;98147.19;;;16.68;64.50
14790;BME280;7486;51.010;10.366;2023-07-20T12:02:19;98141.09;;;16.90;60.90
14790;BME280;7486;51.010;10.366;2023-07-20T12:05:04;98152.50;;;17.02;61.17
14790;BME280;7486;51.010;10.366;2023-07-20T12:07:50;98146.75;;;16.93;60.59
14790;BME280;7486;51.010;10.366;2023-07-20T12:10:39;98143.78;;;16.73;60.56
14790;BME280;7486;51.010;10.366;2023-07-20T12:13:42;98122.72;;;16.77;59.67
14790;BME280;7486;51.010;10.366;2023-07-20T12:16:28;98134.44;;;16.92;59.71
14790;BME280;7486;51.010;10.366;2023-07-20T12:19:15;98133.28;;;17.32;60.60
14790;BME280;7486;51.010;10.366;2023-07-20T12:22:00;98142.25;;;17.42;57.36
14790;BME280;7486;51.010;10.366;2023-07-20T12:24:46;98135.66;;;16.85;57.72
14790;BME280;7486;51.010;10.366;2023-07-20T12:27:31;98135.03;;;16.78;57.84
14790;BME280;7486;51.010;10.366;2023-07-20T12:30:17;98129.66;;;16.94;58.07
14790;BME280;7486;51.010;10.366;2023-07-20T12:33:02;98120.28;;;16.75;57.90
14790;BME280;7486;51.010;10.366;2023-07-20T12:35:48;98122.56;;;17.05;56.10
14790;BME280;7486;51.010;10.366;2023-07-20T12:38:34;98134.59;;;16.86;56.82
14790;BME280;7486;51.010;10.366;2023-07-20T12:41:20;98129.09;;;16.75;57.10
14790;BME280;7486;51.010;10.366;2023-07-20T12:44:05;98120.59;;;16.57;55.67
14790;BME280;7486;51.010;10.366;2023-07-20T12:46:50;98126.19;;;16.77;56.81
14790;BME280;7486;51.010;10.366;2023-07-20T12:49:36;98120.91;;;16.60;57.22
14790;BME280;7486;51.010;10.366;2023-07-20T12:52:21;98125.59;;;17.13;56.07
14790;BME280;7486;51.010;10.366;2023-07-20T12:55:08;98128.13;;;17.25;53.50
14790;BME280;7486;51.010;10.366;2023-07-20T12:57:53;98117.25;;;17.10;54.08
14790;BME280;7486;51.010;10.366;2023-07-20T13:00:39;98113.97;;;17.03;53.85
14790;BME280;7486;51.010;10.366;2023-07-20T13:03:25;98112.78;;;17.15;53.82
14790;BME280;7486;51.010;10.366;2023-07-20T13:06:13;98119.84;;;16.83;53.74
14790;BME280;7486;51.010;10.366;2023-07-20T13:09:02;98104.19;;;16.70;55.50
14790;BME280;7486;51.010;10.366;2023-07-20T13:11:47;98119.81;;;17.00;55.60
14790;BME280;7486;51.010;10.366;2023-07-20T13:14:33;98105.59;;;17.21;55.49
14790;BME280;7486;51.010;10.366;2023-07-20T13:17:18;98117.13;;;17.48;55.08
14790;BME280;7486;51.010;10.366;2023-07-20T13:20:04;98113.06;;;17.67;54.18
14790;BME280;7486;51.010;10.366;2023-07-20T13:22:50;98112.16;;;17.89;53.98
14790;BME280;7486;51.010;10.366;2023-07-20T13:25:35;98110.44;;;18.04;53.26
14790;BME280;7486;51.010;10.366;2023-07-20T13:28:21;98100.72;;;18.35;51.65
14790;BME280;7486;51.010;10.366;2023-07-20T13:31:06;98104.00;;;18.42;51.89
14790;BME280;7486;51.010;10.366;2023-07-20T13:33:51;98106.31;;;18.29;51.76
14790;BME280;7486;51.010;10.366;2023-07-20T13:36:41;98103.47;;;18.08;53.40
14790;BME280;7486;51.010;10.366;2023-07-20T13:39:28;98094.06;;;18.43;51.19
14790;BME280;7486;51.010;10.366;2023-07-20T13:42:13;98096.44;;;18.39;53.07
14790;BME280;7486;51.010;10.366;2023-07-20T13:45:01;98091.44;;;18.48;51.77
14790;BME280;7486;51.010;10.366;2023-07-20T13:47:50;98087.25;;;18.25;53.35
14790;BME280;7486;51.010;10.366;2023-07-20T13:50:37;98098.34;;;18.39;54.74
14790;BME280;7486;51.010;10.366;2023-07-20T13:53:25;98094.69;;;18.60;53.78
14790;BME280;7486;51.010;10.366;2023-07-20T13:56:14;98100.06;;;18.55;53.35
14790;BME280;7486;51.010;10.366;2023-07-20T13:59:02;98114.22;;;18.45;52.93
14790;BME280;7486;51.010;10.366;2023-07-20T14:01:51;98104.91;;;18.21;51.75
14790;BME280;7486;51.010;10.366;2023-07-20T14:04:56;98096.75;;;18.06;53.21
14790;BME280;7486;51.010;10.366;2023-07-20T14:07:44;98094.88;;;18.06;54.25
14790;BME280;7486;51.010;10.366;2023-07-20T14:10:30;98109.75;;;17.87;55.38
14790;BME280;7486;51.010;10.366;2023-07-20T14:13:15;98103.31;;;17.56;57.11
14790;BME280;7486;51.010;10.366;2023-07-20T14:16:01;98108.66;;;17.56;57.73
14790;BME280;7486;51.010;10.366;2023-07-20T14:18:46;98104.44;;;17.65;58.13
14790;BME280;7486;51.010;10.366;2023-07-20T14:21:34;98101.69;;;17.55;58.35
14790;BME280;7486;51.010;10.366;2023-07-20T14:24:19;98096.63;;;17.59;58.67
14790;BME280;7486;51.010;10.366;2023-07-20T14:27:05;98096.81;;;17.52;61.22
14790;BME280;7486;51.010;10.366;2023-07-20T14:29:50;98099.94;;;17.44;61.82
14790;BME280;7486;51.010;10.366;2023-07-20T14:32:36;98076.03;;;17.33;60.58
14790;BME280;7486;51.010;10.366;2023-07-20T14:35:22;98086.94;;;17.85;60.78
14790;BME280;7486;51.010;10.366;2023-07-20T14:38:10;98038.88;;;17.68;58.42
14790;BME280;7486;51.010;10.366;2023-07-20T14:40:55;98090.66;;;18.15;58.29
14790;BME280;7486;51.010;10.366;2023-07-20T14:43:41;98093.69;;;18.24;57.61
14790;BME280;7486;51.010;10.366;2023-07-20T14:46:26;98091.53;;;18.26;56.29
14790;BME280;7486;51.010;10.366;2023-07-20T14:49:12;98098.38;;;18.44;56.22
14790;BME280;7486;51.010;10.366;2023-07-20T14:51:57;98091.06;;;18.34;56.41
14790;BME280;7486;51.010;10.366;2023-07-20T14:54:45;98088.50;;;18.54;55.54